Time;durP1;ratioP1;P1;durP2;ratioP2;P2;SDS_P1;SDS_P2;PMS_P1;PMS_P2;Temp;Humidity;BMP_temperature;BMP_pressure;BME280_temperature;BME280_humidity;BME280_pressure;Samples;Min_cycle;Max_cycle;Signal;HPM_P1;HPM_P2
2022/01/30 00:02:12;;;;;;;7.63;5.43;;;5.40;99.90;;;;;;5004369;28;20026;-71
2022/01/30 00:04:38;;;;;;;9.43;6.13;;;5.40;99.90;;;;;;5006345;28;20104;-71
2022/01/30 00:07:04;;;;;;;7.90;5.78;;;5.40;99.90;;;;;;5029439;28;20487;-71
2022/01/30 00:09:29;;;;;;;7.78;5.82;;;5.40;99.90;;;;;;5006362;28;20491;-71
2022/01/30 00:11:58;;;;;;;9.45;5.55;;;5.50;99.90;;;;;;5005134;28;20034;-71
2022/01/30 00:14:27;;;;;;;10.43;5.28;;;5.70;99.90;;;;;;5006313;28;20018;-71
2022/01/30 00:16:57;;;;;;;7.80;4.53;;;5.90;99.90;;;;;;5004319;28;20469;-72
2022/01/30 00:19:30;;;;;;;12.82;5.65;;;6.00;99.90;;;;;;5004931;28;20021;-72
2022/01/30 00:22:20;;;;;;;11.32;4.45;;;5.80;99.90;;;;;;5003394;28;20073;-72
2022/01/30 00:27:18;;;;;;;16.08;6.00;;;6.00;99.90;;;;;;5005795;28;20029;-72
2022/01/30 00:29:44;;;;;;;10.80;4.10;;;6.10;99.90;;;;;;5003564;28;20018;-72
2022/01/30 00:32:10;;;;;;;13.85;5.15;;;6.00;99.90;;;;;;5009305;28;20022;-72
2022/01/30 00:34:35;;;;;;;12.77;4.07;;;6.00;99.90;;;;;;5002416;28;20030;-71
2022/01/30 00:37:02;;;;;;;11.70;5.38;;;6.10;99.90;;;;;;5008500;28;20026;-72
2022/01/30 00:39:28;;;;;;;14.90;4.80;;;6.00;99.90;;;;;;5006154;28;20439;-72
2022/01/30 00:41:53;;;;;;;10.68;4.68;;;6.00;99.90;;;;;;5004401;28;20023;-72
2022/01/30 00:44:19;;;;;;;10.85;4.43;;;6.00;99.90;;;;;;5006367;28;20030;-72
2022/01/30 00:46:45;;;;;;;12.85;4.80;;;6.00;99.90;;;;;;5005784;28;20059;-72
2022/01/30 00:49:11;;;;;;;11.00;4.43;;;5.90;99.90;;;;;;5003539;28;20056;-72
2022/01/30 00:51:37;;;;;;;13.23;5.10;;;6.00;99.90;;;;;;5005361;28;20045;-72
2022/01/30 00:54:04;;;;;;;11.05;4.80;;;6.00;99.90;;;;;;5002252;28;20042;-72
2022/01/30 00:56:30;;;;;;;14.88;4.70;;;5.90;99.90;;;;;;5005604;28;20057;-72
2022/01/30 00:58:55;;;;;;;9.02;4.65;;;5.90;99.90;;;;;;5003173;28;20070;-71
2022/01/30 01:01:21;;;;;;;11.45;4.72;;;5.90;99.90;;;;;;5005188;28;20034;-71
2022/01/30 01:03:46;;;;;;;15.25;4.90;;;5.90;99.90;;;;;;5004063;28;20500;-71
2022/01/30 01:06:12;;;;;;;10.38;4.03;;;5.80;99.90;;;;;;5012475;28;20026;-71
2022/01/30 01:08:50;;;;;;;11.02;4.72;;;5.80;99.90;;;;;;5004398;28;20025;-71
2022/01/30 01:24:13;;;;;;;13.55;4.88;;;5.70;99.90;;;;;;5008643;28;20057;-72
2022/01/30 01:26:38;;;;;;;7.22;4.50;;;5.70;99.90;;;;;;5001570;28;20436;-72
2022/01/30 01:29:06;;;;;;;12.98;4.45;;;5.70;99.90;;;;;;5006174;28;20539;-72
2022/01/30 01:31:31;;;;;;;10.85;4.32;;;5.70;99.90;;;;;;5005587;28;20101;-72
2022/01/30 01:34:17;;;;;;;10.48;4.80;;;5.60;99.90;;;;;;5002410;28;20451;-72
2022/01/30 01:36:43;;;;;;;12.77;4.75;;;5.50;99.90;;;;;;5004941;28;20472;-72
2022/01/30 01:39:09;;;;;;;13.10;4.32;;;5.50;99.90;;;;;;5004268;28;20068;-72
2022/01/30 01:41:36;;;;;;;13.48;4.95;;;5.50;99.90;;;;;;4998478;28;20027;-72
2022/01/30 01:44:02;;;;;;;15.38;4.85;;;5.40;99.90;;;;;;5006206;28;20022;-72
2022/01/30 01:46:33;;;;;;;12.00;5.63;;;5.50;99.90;;;;;;5002786;28;20033;-72
2022/01/30 01:48:59;;;;;;;12.82;4.20;;;5.50;99.90;;;;;;4994755;28;20030;-72
2022/01/30 01:51:29;;;;;;;18.38;4.80;;;5.60;99.90;;;;;;4992829;28;20022;-72
2022/01/30 01:53:56;;;;;;;10.43;4.60;;;5.60;99.90;;;;;;4992859;28;20498;-72
2022/01/30 01:56:23;;;;;;;11.70;4.38;;;5.60;99.90;;;;;;4992447;28;20026;-72
2022/01/30 01:58:49;;;;;;;15.32;4.65;;;5.60;99.90;;;;;;4992946;28;20444;-72
2022/01/30 02:01:15;;;;;;;13.50;5.13;;;5.60;99.90;;;;;;4992679;28;20531;-71
2022/01/30 02:03:41;;;;;;;11.25;4.50;;;5.60;99.90;;;;;;4997489;28;20022;-70
2022/01/30 02:06:11;;;;;;;17.42;4.75;;;5.60;99.90;;;;;;5012427;28;20037;-72
2022/01/30 02:24:33;;;;;;;13.32;4.65;;;5.70;99.90;;;;;;4992406;28;20112;-71
2022/01/30 02:26:59;;;;;;;12.50;4.85;;;5.70;99.90;;;;;;4993000;28;20030;-71
2022/01/30 02:29:25;;;;;;;12.95;4.18;;;5.70;99.90;;;;;;4995511;28;20037;-71
2022/01/30 02:31:55;;;;;;;13.35;4.20;;;5.60;99.90;;;;;;5002409;28;20022;-72
2022/01/30 02:34:26;;;;;;;11.48;4.20;;;5.60;99.90;;;;;;5008992;28;20022;-71
2022/01/30 02:36:52;;;;;;;14.30;4.53;;;5.70;99.90;;;;;;5001473;28;20028;-70
2022/01/30 02:39:19;;;;;;;11.77;4.95;;;5.70;99.90;;;;;;5005518;28;20034;-73
2022/01/30 02:41:45;;;;;;;13.50;4.70;;;5.80;99.90;;;;;;5002101;28;20100;-73
2022/01/30 02:44:24;;;;;;;16.58;4.47;;;5.80;99.90;;;;;;4998826;28;20029;-73
2022/01/30 02:46:53;;;;;;;19.02;5.22;;;5.90;99.90;;;;;;4998067;28;20033;-72
2022/01/30 02:54:39;;;;;;;15.15;4.15;;;5.80;99.90;;;;;;5022020;23;20088;-74
2022/01/30 02:57:05;;;;;;;15.25;4.78;;;5.60;99.90;;;;;;5016948;28;20032;-74
2022/01/30 02:59:31;;;;;;;9.85;3.63;;;5.60;99.90;;;;;;5022180;28;20025;-75
2022/01/30 03:01:56;;;;;;;16.92;4.93;;;5.60;99.90;;;;;;5019684;28;20083;-74
2022/01/30 03:04:22;;;;;;;10.98;3.90;;;5.60;99.90;;;;;;5031367;28;20399;-75
2022/01/30 03:06:48;;;;;;;9.30;3.50;;;5.60;99.90;;;;;;5014007;28;20039;-75
2022/01/30 03:09:13;;;;;;;8.20;3.28;;;5.70;99.90;;;;;;5035549;28;20087;-75
2022/01/30 03:11:39;;;;;;;8.13;3.30;;;5.50;99.90;;;;;;5020975;28;20029;-75
2022/01/30 03:14:05;;;;;;;13.35;3.95;;;5.60;99.90;;;;;;5026291;28;20037;-76
2022/01/30 03:16:31;;;;;;;12.35;3.40;;;5.50;99.90;;;;;;5022257;28;20036;-76
2022/01/30 03:18:56;;;;;;;12.32;3.55;;;5.50;99.90;;;;;;5024611;28;20025;-76
2022/01/30 03:21:22;;;;;;;8.98;3.17;;;5.50;99.90;;;;;;5014781;28;20018;-76
2022/01/30 03:23:48;;;;;;;10.93;3.72;;;5.50;99.90;;;;;;5007282;28;20479;-76
2022/01/30 03:26:14;;;;;;;9.75;2.92;;;5.40;99.90;;;;;;5019615;28;20446;-76
2022/01/30 03:28:43;;;;;;;8.90;3.30;;;5.40;99.90;;;;;;5024804;28;20018;-74
2022/01/30 03:31:11;;;;;;;8.15;3.10;;;5.40;99.90;;;;;;5028393;28;20069;-75
2022/01/30 03:33:38;;;;;;;9.30;3.15;;;5.50;99.90;;;;;;5026068;28;20018;-75
2022/01/30 03:36:04;;;;;;;11.45;3.45;;;5.40;99.90;;;;;;5021849;28;20104;-73
2022/01/30 03:38:30;;;;;;;9.05;2.60;;;5.40;99.90;;;;;;5024065;28;20129;-72
2022/01/30 03:40:55;;;;;;;7.10;3.38;;;5.30;99.90;;;;;;5028255;28;20060;-74
2022/01/30 03:43:21;;;;;;;7.68;3.47;;;5.40;99.90;;;;;;5015198;28;20108;-74
2022/01/30 03:45:47;;;;;;;11.48;3.70;;;5.40;99.90;;;;;;4998701;28;20029;-74
2022/01/30 03:48:14;;;;;;;11.68;3.30;;;5.30;99.90;;;;;;5022539;28;20022;-74
2022/01/30 03:50:44;;;;;;;10.07;3.47;;;5.30;99.90;;;;;;5031979;28;20021;-74
2022/01/30 03:53:10;;;;;;;8.13;3.10;;;5.30;99.90;;;;;;5023558;28;20109;-75
2022/01/30 03:55:36;;;;;;;10.13;3.08;;;5.40;99.90;;;;;;5032737;28;20073;-76
2022/01/30 03:58:02;;;;;;;8.52;3.13;;;5.20;99.90;;;;;;5034377;28;20053;-75
2022/01/30 04:00:29;;;;;;;8.35;3.40;;;5.30;99.90;;;;;;5016484;28;20029;-76
2022/01/30 04:02:54;;;;;;;11.57;3.28;;;5.20;99.90;;;;;;5026285;28;20028;-76
2022/01/30 04:05:20;;;;;;;8.32;3.28;;;5.20;99.90;;;;;;5016689;28;20398;-75
2022/01/30 04:07:46;;;;;;;9.82;3.67;;;5.20;99.90;;;;;;5034507;28;20535;-75
2022/01/30 04:10:13;;;;;;;9.55;3.25;;;5.10;99.90;;;;;;5016251;28;20487;-75
2022/01/30 04:12:39;;;;;;;8.20;3.33;;;5.20;99.90;;;;;;5014470;28;20479;-75
2022/01/30 04:15:06;;;;;;;8.75;3.90;;;5.10;99.90;;;;;;5027860;28;20033;-76
2022/01/30 04:17:31;;;;;;;13.40;4.13;;;5.10;99.90;;;;;;5026039;28;20487;-75
2022/01/30 04:19:57;;;;;;;10.93;3.53;;;5.00;99.90;;;;;;5020158;28;20069;-76
2022/01/30 04:22:23;;;;;;;11.02;3.65;;;5.10;99.90;;;;;;5022726;28;20066;-74
2022/01/30 04:24:48;;;;;;;13.70;4.13;;;5.10;99.90;;;;;;5014704;28;20025;-75
2022/01/30 04:27:14;;;;;;;12.90;3.95;;;5.10;99.90;;;;;;5022757;28;20038;-75
2022/01/30 04:29:40;;;;;;;12.88;3.97;;;5.20;99.90;;;;;;5019410;28;20021;-75
2022/01/30 04:32:06;;;;;;;12.02;4.00;;;5.10;99.90;;;;;;5016288;28;20018;-75
2022/01/30 04:34:32;;;;;;;9.77;3.63;;;5.10;99.90;;;;;;5016304;28;20484;-75
2022/01/30 04:39:53;;;;;;;11.90;4.70;;;5.10;99.90;;;;;;5019202;28;20485;-76
2022/01/30 04:51:57;;;;;;;10.95;4.10;;;5.10;99.90;;;;;;5020092;28;20060;-75
2022/01/30 04:53:38;;;;;;;12.90;4.10;;;4.90;99.90;;;;;;5022849;28;20083;-75
2022/01/30 04:56:48;;;;;;;11.20;3.72;;;4.80;99.90;;;;;;5025269;28;20399;-74
2022/01/30 04:59:15;;;;;;;11.05;3.85;;;4.80;99.90;;;;;;5026771;28;20048;-74
2022/01/30 05:07:26;;;;;;;16.48;4.07;;;5.00;99.90;;;;;;5015899;28;20105;-74
2022/01/30 05:09:40;;;;;;;12.07;3.90;;;4.90;99.90;;;;;;5013407;28;20018;-75
2022/01/30 05:12:06;;;;;;;15.95;4.28;;;4.90;99.90;;;;;;4999305;28;20428;-75
2022/01/30 05:14:35;;;;;;;13.57;3.92;;;4.80;99.90;;;;;;5013442;28;20076;-74
2022/01/30 05:17:01;;;;;;;14.40;4.20;;;4.90;99.90;;;;;;5020502;28;20079;-73
2022/01/30 05:19:27;;;;;;;10.75;4.22;;;5.00;99.90;;;;;;5019941;28;20030;-73
2022/01/30 05:21:55;;;;;;;16.10;4.93;;;4.90;99.90;;;;;;5007760;28;20119;-73
2022/01/30 05:24:21;;;;;;;15.32;5.03;;;4.80;99.90;;;;;;5027109;28;20025;-72
2022/01/30 05:26:47;;;;;;;12.23;4.20;;;4.80;99.90;;;;;;5029224;28;20102;-74
2022/01/30 05:29:13;;;;;;;11.32;4.05;;;4.80;99.90;;;;;;5031930;28;20523;-73
2022/01/30 05:31:39;;;;;;;11.57;4.57;;;4.80;99.90;;;;;;5019730;28;20478;-74
2022/01/30 05:34:05;;;;;;;15.02;4.40;;;4.80;99.90;;;;;;5032671;28;20092;-75
2022/01/30 05:36:31;;;;;;;12.98;4.55;;;4.80;99.90;;;;;;5023663;28;20045;-74
2022/01/30 05:38:58;;;;;;;13.43;4.40;;;4.80;99.90;;;;;;5032341;28;20091;-75
2022/01/30 05:41:24;;;;;;;14.32;4.75;;;4.80;99.90;;;;;;5026571;28;20040;-75
2022/01/30 05:43:53;;;;;;;11.98;3.90;;;4.80;99.90;;;;;;5001712;28;20390;-74
2022/01/30 05:46:31;;;;;;;16.80;4.22;;;4.70;99.90;;;;;;5023987;28;20723;-75
2022/01/30 05:48:56;;;;;;;16.13;4.88;;;4.70;99.90;;;;;;5026043;28;20029;-75
2022/01/30 05:51:22;;;;;;;14.68;4.75;;;4.80;99.90;;;;;;5022744;28;20029;-74
2022/01/30 05:53:48;;;;;;;15.00;5.13;;;4.80;99.90;;;;;;5014746;28;20033;-75
2022/01/30 05:56:13;;;;;;;15.57;4.57;;;4.70;99.90;;;;;;5015073;28;20103;-75
2022/01/30 05:58:40;;;;;;;14.35;4.38;;;4.60;99.90;;;;;;5003627;28;20037;-74
2022/01/30 06:01:05;;;;;;;18.83;4.82;;;4.50;99.90;;;;;;5005382;28;20022;-75
2022/01/30 06:03:31;;;;;;;15.60;4.05;;;4.60;99.90;;;;;;5015424;28;20483;-74
2022/01/30 06:05:57;;;;;;;17.67;4.68;;;4.70;99.90;;;;;;5023024;28;20033;-74
2022/01/30 06:08:40;;;;;;;15.50;4.93;;;4.70;99.90;;;;;;5017155;28;20021;-73
2022/01/30 06:11:06;;;;;;;13.13;4.68;;;4.60;99.90;;;;;;5022631;28;20071;-74
2022/01/30 06:13:32;;;;;;;14.77;4.85;;;4.60;99.90;;;;;;5032265;28;20021;-74
2022/01/30 06:15:58;;;;;;;19.10;5.30;;;4.60;99.90;;;;;;5014499;28;20032;-75
2022/01/30 06:18:24;;;;;;;13.50;4.72;;;4.70;99.90;;;;;;5018795;28;20083;-74
2022/01/30 06:20:49;;;;;;;16.50;4.85;;;4.60;99.90;;;;;;5019047;28;20038;-74
2022/01/30 06:23:15;;;;;;;19.98;4.70;;;4.60;99.90;;;;;;5025543;28;20021;-74
2022/01/30 06:25:41;;;;;;;14.27;4.82;;;4.60;99.90;;;;;;5024924;28;20025;-74
2022/01/30 06:28:06;;;;;;;11.90;4.80;;;4.60;99.90;;;;;;5018815;28;20475;-74
2022/01/30 06:30:32;;;;;;;16.70;4.80;;;4.70;99.90;;;;;;5031771;28;20068;-74
2022/01/30 06:32:58;;;;;;;14.93;5.00;;;4.60;99.90;;;;;;5026247;28;20117;-74
2022/01/30 06:35:23;;;;;;;12.57;4.72;;;4.60;99.90;;;;;;5006603;28;20075;-74
2022/01/30 06:37:49;;;;;;;15.38;4.32;;;4.60;99.90;;;;;;5018500;28;20466;-74
2022/01/30 06:40:14;;;;;;;12.40;4.63;;;4.50;99.90;;;;;;5014012;28;20483;-75
2022/01/30 06:42:40;;;;;;;16.67;4.78;;;4.50;99.90;;;;;;5000503;28;20475;-74
2022/01/30 06:45:07;;;;;;;17.73;5.68;;;4.50;99.90;;;;;;5031608;28;20034;-74
2022/01/30 06:47:42;;;;;;;18.63;8.10;;;4.40;99.90;;;;;;5008754;28;20471;-74
2022/01/30 06:50:09;;;;;;;11.10;4.28;;;4.40;99.90;;;;;;5025283;28;20421;-74
2022/01/30 06:52:34;;;;;;;15.73;5.40;;;4.40;99.90;;;;;;5018478;28;20053;-74
2022/01/30 06:55:00;;;;;;;14.73;5.00;;;4.40;99.90;;;;;;5013819;28;20060;-75
2022/01/30 06:57:25;;;;;;;16.13;5.40;;;4.50;99.90;;;;;;5024935;28;20026;-74
2022/01/30 06:59:51;;;;;;;16.45;5.20;;;4.40;99.90;;;;;;5009850;28;20033;-74
2022/01/30 07:02:17;;;;;;;12.93;4.72;;;4.40;99.90;;;;;;5000160;28;20033;-74
2022/01/30 07:04:42;;;;;;;16.52;5.43;;;4.50;99.90;;;;;;4994118;28;20368;-74
2022/01/30 07:07:08;;;;;;;12.05;4.63;;;4.30;99.90;;;;;;5031190;28;20022;-74
2022/01/30 07:09:34;;;;;;;15.25;4.88;;;4.40;99.90;;;;;;5012079;28;20556;-74
2022/01/30 07:12:00;;;;;;;15.98;5.15;;;4.40;99.90;;;;;;5025325;28;20053;-74
2022/01/30 07:14:25;;;;;;;19.23;4.93;;;4.30;99.90;;;;;;5023854;28;20064;-74
2022/01/30 07:16:51;;;;;;;16.88;5.43;;;4.50;99.90;;;;;;5023697;28;20126;-74
2022/01/30 07:19:16;;;;;;;18.08;5.32;;;4.30;99.90;;;;;;5034129;28;20025;-75
2022/01/30 07:21:42;;;;;;;16.38;4.88;;;4.20;99.90;;;;;;5036291;28;20087;-74
2022/01/30 07:24:08;;;;;;;15.95;5.45;;;4.40;99.90;;;;;;5013871;28;20368;-74
2022/01/30 07:26:34;;;;;;;12.90;4.70;;;4.40;99.90;;;;;;5015943;28;20033;-75
2022/01/30 07:29:00;;;;;;;14.05;4.90;;;4.40;99.90;;;;;;5031812;28;20483;-74
2022/01/30 07:31:26;;;;;;;13.55;4.47;;;4.50;99.90;;;;;;5043594;28;20435;-74
2022/01/30 07:33:51;;;;;;;16.77;5.13;;;4.30;99.90;;;;;;5013490;28;20052;-74
2022/01/30 07:36:17;;;;;;;13.93;4.70;;;4.30;99.90;;;;;;5015373;28;20017;-74
2022/01/30 07:38:43;;;;;;;12.82;4.55;;;4.40;99.90;;;;;;5018543;28;20021;-74
2022/01/30 07:41:09;;;;;;;15.68;5.28;;;4.40;99.90;;;;;;5046092;28;20033;-74
2022/01/30 07:43:35;;;;;;;18.25;5.95;;;4.30;99.90;;;;;;5044002;28;20434;-74
2022/01/30 07:46:02;;;;;;;15.05;5.22;;;4.30;99.90;;;;;;5021917;28;20114;-74
2022/01/30 07:48:28;;;;;;;11.40;3.97;;;4.40;99.90;;;;;;5016173;28;20071;-74
2022/01/30 07:50:54;;;;;;;14.57;4.75;;;4.40;99.90;;;;;;5036211;28;20025;-73
2022/01/30 07:53:19;;;;;;;14.77;4.78;;;4.30;99.90;;;;;;5038168;28;20025;-73
2022/01/30 07:55:45;;;;;;;15.80;4.60;;;4.30;99.90;;;;;;5040210;28;20114;-73
2022/01/30 07:58:10;;;;;;;16.05;4.82;;;4.40;99.90;;;;;;5032312;28;20029;-73
2022/01/30 08:00:37;;;;;;;12.43;4.80;;;4.40;99.90;;;;;;5024975;28;20511;-73
2022/01/30 08:03:03;;;;;;;13.50;4.38;;;4.40;99.90;;;;;;5026406;28;20041;-73
2022/01/30 08:05:29;;;;;;;15.65;5.22;;;4.40;99.90;;;;;;5026010;28;20017;-74
2022/01/30 08:07:54;;;;;;;15.15;4.72;;;4.50;99.90;;;;;;5045393;28;20020;-74
2022/01/30 08:10:20;;;;;;;16.42;5.53;;;4.30;99.90;;;;;;5031225;28;20028;-75
2022/01/30 08:12:45;;;;;;;16.73;5.72;;;4.30;99.90;;;;;;5015924;28;20427;-75
2022/01/30 08:15:11;;;;;;;15.35;5.70;;;4.40;99.90;;;;;;5044905;28;20388;-74
2022/01/30 08:17:38;;;;;;;19.48;5.60;;;4.50;99.90;;;;;;5027524;28;20037;-74
2022/01/30 08:20:07;;;;;;;16.98;5.10;;;4.40;99.90;;;;;;5026223;28;20029;-74
2022/01/30 08:22:49;;;;;;;16.20;5.72;;;4.40;99.90;;;;;;5021565;28;20545;-74
2022/01/30 08:25:15;;;;;;;16.20;4.88;;;4.40;99.90;;;;;;5022956;28;20117;-74
2022/01/30 08:27:41;;;;;;;17.67;5.63;;;4.40;99.90;;;;;;5037066;28;20037;-74
2022/01/30 08:30:07;;;;;;;14.68;4.95;;;4.60;99.90;;;;;;5039337;28;20059;-74
2022/01/30 08:32:44;;;;;;;12.57;4.57;;;4.50;99.90;;;;;;5048761;28;20021;-74
2022/01/30 08:35:13;;;;;;;12.07;5.50;;;4.50;99.90;;;;;;5026870;28;20026;-75
2022/01/30 08:37:38;;;;;;;16.25;5.40;;;4.50;99.90;;;;;;5034977;28;20022;-74
2022/01/30 08:40:08;;;;;;;15.07;5.72;;;4.50;99.90;;;;;;5042922;28;20108;-74
2022/01/30 08:42:34;;;;;;;15.90;5.20;;;4.50;99.90;;;;;;5029365;28;20021;-74
2022/01/30 08:45:02;;;;;;;20.33;5.25;;;4.60;99.90;;;;;;5031352;28;20094;-74
2022/01/30 08:47:28;;;;;;;19.17;5.53;;;4.60;99.90;;;;;;5019891;28;20061;-74
2022/01/30 08:49:54;;;;;;;19.02;6.38;;;4.50;99.90;;;;;;5017806;28;20139;-75
2022/01/30 08:52:19;;;;;;;15.98;5.07;;;4.60;99.90;;;;;;5021848;28;20428;-75
2022/01/30 08:54:48;;;;;;;15.90;5.88;;;4.50;99.90;;;;;;5035265;28;20021;-74
2022/01/30 08:57:14;;;;;;;14.32;5.05;;;4.60;99.90;;;;;;5015825;28;20021;-75
2022/01/30 08:59:39;;;;;;;12.90;4.75;;;4.50;99.90;;;;;;5024594;28;20032;-74
2022/01/30 09:02:05;;;;;;;13.73;4.22;;;4.60;99.90;;;;;;5032361;28;20030;-74
2022/01/30 09:04:30;;;;;;;15.57;5.32;;;4.60;99.90;;;;;;5015286;28;20033;-75
2022/01/30 09:06:56;;;;;;;13.20;4.82;;;4.60;99.90;;;;;;5024105;28;20116;-75
2022/01/30 09:09:22;;;;;;;16.92;5.43;;;4.70;99.90;;;;;;5021952;28;20024;-75
2022/01/30 09:11:47;;;;;;;12.48;4.18;;;4.60;99.90;;;;;;5012050;28;20097;-74
2022/01/30 09:14:14;;;;;;;16.48;5.07;;;4.70;99.90;;;;;;5024430;28;20133;-75
2022/01/30 09:16:40;;;;;;;14.23;4.63;;;4.60;99.90;;;;;;5015197;28;20017;-75
2022/01/30 09:19:05;;;;;;;21.77;4.78;;;4.60;99.90;;;;;;5023446;28;20370;-74
2022/01/30 09:21:31;;;;;;;11.60;4.43;;;4.60;99.90;;;;;;5034728;28;20079;-74
2022/01/30 09:23:56;;;;;;;10.23;4.22;;;4.60;99.90;;;;;;5038272;28;20109;-75
2022/01/30 09:26:22;;;;;;;13.65;4.47;;;4.60;99.90;;;;;;5024348;28;20487;-75
2022/01/30 09:28:48;;;;;;;12.68;4.45;;;4.60;99.90;;;;;;5019631;28;20032;-75
2022/01/30 09:31:14;;;;;;;11.93;3.95;;;4.70;99.90;;;;;;5019765;28;20017;-75
2022/01/30 09:33:39;;;;;;;13.45;4.28;;;4.60;99.90;;;;;;5037208;28;20112;-75
2022/01/30 09:36:05;;;;;;;11.80;4.18;;;4.70;99.90;;;;;;5035158;28;20048;-75
2022/01/30 09:38:31;;;;;;;10.93;4.80;;;4.80;99.90;;;;;;5027934;28;20034;-74
2022/01/30 09:40:58;;;;;;;13.55;5.40;;;4.80;99.90;;;;;;5011279;28;20391;-75
2022/01/30 09:43:27;;;;;;;14.95;4.28;;;4.80;99.90;;;;;;5016544;28;20028;-75
2022/01/30 09:45:53;;;;;;;9.57;4.30;;;4.80;99.90;;;;;;5039193;28;20506;-75
2022/01/30 09:48:19;;;;;;;11.30;3.55;;;4.60;99.90;;;;;;5011546;28;20021;-74
2022/01/30 09:50:46;;;;;;;12.27;4.55;;;4.70;99.90;;;;;;5040572;28;20538;-74
2022/01/30 09:53:11;;;;;;;11.32;4.00;;;4.70;99.90;;;;;;5022714;28;20021;-75
2022/01/30 09:55:37;;;;;;;12.00;4.40;;;4.70;99.90;;;;;;5041957;28;20171;-75
2022/01/30 09:58:04;;;;;;;12.10;4.70;;;4.70;99.90;;;;;;5018962;28;20037;-74
2022/01/30 10:00:30;;;;;;;11.30;4.10;;;4.70;99.90;;;;;;5023831;28;20495;-74
2022/01/30 10:02:55;;;;;;;12.95;4.78;;;4.80;99.90;;;;;;5034744;28;20036;-75
2022/01/30 10:05:21;;;;;;;9.43;3.75;;;4.80;99.90;;;;;;5020072;28;20050;-74
2022/01/30 10:07:53;;;;;;;17.40;4.32;;;4.80;99.90;;;;;;5042120;28;20028;-75
2022/01/30 10:10:23;;;;;;;11.57;4.05;;;4.80;99.90;;;;;;5026822;28;20022;-74
2022/01/30 10:13:11;;;;;;;15.18;4.38;;;4.80;99.90;;;;;;5024497;28;20029;-74
2022/01/30 10:15:58;;;;;;;12.82;4.03;;;4.90;99.90;;;;;;5003391;28;20025;-75
2022/01/30 10:18:33;;;;;;;11.27;4.07;;;4.90;99.90;;;;;;5025181;28;20026;-75
2022/01/30 10:20:59;;;;;;;11.30;4.72;;;4.90;99.90;;;;;;5020720;28;20391;-74
2022/01/30 10:23:36;;;;;;;12.48;4.30;;;4.90;99.90;;;;;;5016917;28;20029;-74
2022/01/30 10:26:08;;;;;;;10.63;4.53;;;5.00;99.90;;;;;;5008550;28;20120;-74
2022/01/30 10:28:34;;;;;;;11.00;4.10;;;5.00;99.90;;;;;;5014304;28;20025;-75
2022/01/30 10:31:07;;;;;;;12.43;4.32;;;5.10;99.90;;;;;;5028646;28;20029;-74
2022/01/30 10:33:45;;;;;;;10.13;4.00;;;5.00;99.90;;;;;;5012270;28;20026;-74
2022/01/30 10:36:12;;;;;;;13.75;3.85;;;5.20;99.90;;;;;;5012364;28;20031;-73
2022/01/30 10:38:48;;;;;;;10.23;3.65;;;5.00;99.90;;;;;;5002000;28;20104;-73
2022/01/30 10:41:21;;;;;;;13.27;4.20;;;5.00;99.90;;;;;;4993886;28;20029;-73
2022/01/30 10:43:56;;;;;;;14.07;4.68;;;5.10;99.90;;;;;;5027850;28;20060;-73
2022/01/30 10:46:28;;;;;;;15.38;4.57;;;5.20;99.90;;;;;;5013643;28;20116;-73
2022/01/30 10:49:02;;;;;;;11.48;3.90;;;5.10;99.90;;;;;;5018525;28;20025;-74
2022/01/30 10:51:30;;;;;;;11.25;3.92;;;5.10;99.90;;;;;;5020321;28;20059;-73
2022/01/30 10:54:11;;;;;;;9.73;4.22;;;5.00;99.90;;;;;;5011936;28;20577;-73
2022/01/30 10:56:38;;;;;;;13.13;4.82;;;5.00;99.90;;;;;;5000704;28;20065;-73
2022/01/30 10:59:10;;;;;;;9.55;3.75;;;5.00;99.90;;;;;;5016864;28;20025;-73
2022/01/30 11:01:44;;;;;;;8.85;3.85;;;5.00;99.90;;;;;;5016986;28;20038;-74
2022/01/30 11:04:25;;;;;;;10.25;3.70;;;5.00;99.90;;;;;;5011676;28;20080;-73
2022/01/30 11:06:52;;;;;;;13.38;4.20;;;5.10;99.90;;;;;;5012027;28;20018;-73
2022/01/30 11:09:24;;;;;;;10.50;3.70;;;5.00;99.90;;;;;;5026276;28;20045;-75
2022/01/30 11:12:08;;;;;;;10.68;4.47;;;5.10;99.90;;;;;;5013860;28;20117;-74
2022/01/30 11:14:51;;;;;;;13.27;4.32;;;5.10;99.90;;;;;;5011099;28;20045;-74
2022/01/30 11:17:19;;;;;;;9.52;3.47;;;5.00;99.90;;;;;;5022490;28;20018;-74
2022/01/30 11:19:47;;;;;;;10.30;3.35;;;5.10;99.90;;;;;;5024960;28;20022;-75
2022/01/30 11:22:14;;;;;;;12.77;4.05;;;4.90;99.90;;;;;;5020700;28;20027;-73
2022/01/30 11:24:43;;;;;;;14.80;4.47;;;5.10;99.90;;;;;;5029818;28;20017;-74
2022/01/30 11:27:09;;;;;;;12.30;4.05;;;5.10;99.90;;;;;;5013483;28;20037;-73
2022/01/30 11:29:37;;;;;;;12.30;4.13;;;5.10;99.90;;;;;;5014812;28;20027;-75
2022/01/30 11:32:05;;;;;;;10.88;3.60;;;5.00;99.90;;;;;;5029526;28;20022;-76
2022/01/30 11:34:35;;;;;;;12.82;4.28;;;5.00;99.90;;;;;;5002284;28;20049;-75
2022/01/30 11:37:02;;;;;;;11.93;4.50;;;5.10;99.90;;;;;;5022901;28;20092;-75
2022/01/30 11:39:28;;;;;;;11.18;4.20;;;5.10;99.90;;;;;;5020694;28;20506;-75
2022/01/30 11:42:37;;;;;;;13.30;4.30;;;5.20;99.90;;;;;;5015396;28;20054;-75
2022/01/30 11:45:09;;;;;;;13.98;4.45;;;5.10;99.90;;;;;;4976844;28;20062;-75
2022/01/30 11:48:00;;;;;;;14.65;4.20;;;5.20;99.90;;;;;;5028421;28;20033;-75
2022/01/30 11:50:31;;;;;;;12.60;4.10;;;5.20;99.90;;;;;;5012513;28;20033;-75
2022/01/30 11:53:05;;;;;;;11.98;3.60;;;5.20;99.90;;;;;;5034831;28;20021;-75
2022/01/30 11:55:57;;;;;;;10.60;3.92;;;5.20;99.90;;;;;;5021282;28;20048;-75
2022/01/30 11:58:31;;;;;;;13.38;4.45;;;5.10;99.90;;;;;;5015393;28;20025;-74
2022/01/30 12:00:59;;;;;;;12.15;3.85;;;5.20;99.90;;;;;;5006003;28;20029;-74
2022/01/30 12:03:27;;;;;;;13.40;4.47;;;5.20;99.90;;;;;;5032074;28;20475;-75
2022/01/30 12:05:55;;;;;;;12.48;4.45;;;5.30;99.90;;;;;;5014836;28;20061;-75
2022/01/30 12:08:45;;;;;;;13.32;4.72;;;5.30;99.90;;;;;;5025206;28;20026;-75
2022/01/30 12:11:35;;;;;;;12.75;4.15;;;5.30;99.90;;;;;;5027820;28;20029;-75
2022/01/30 12:14:02;;;;;;;12.20;4.25;;;5.30;99.90;;;;;;5024698;28;20048;-74
2022/01/30 12:16:51;;;;;;;17.67;4.40;;;5.40;99.90;;;;;;5020889;28;20544;-75
2022/01/30 12:19:37;;;;;;;15.60;4.93;;;5.40;99.90;;;;;;5016604;28;20494;-75
2022/01/30 12:22:18;;;;;;;14.10;4.53;;;5.50;99.90;;;;;;5009273;28;20100;-75
2022/01/30 12:24:49;;;;;;;13.07;4.38;;;5.50;99.90;;;;;;5016367;28;20097;-75
2022/01/30 12:27:16;;;;;;;15.63;5.15;;;5.60;99.90;;;;;;5005775;28;20693;-75
2022/01/30 12:29:46;;;;;;;12.90;4.90;;;5.40;99.90;;;;;;5019479;28;20029;-75
2022/01/30 12:32:21;;;;;;;14.95;4.53;;;5.40;99.90;;;;;;5021731;28;20018;-75
2022/01/30 12:34:55;;;;;;;16.20;6.35;;;5.40;99.90;;;;;;5020544;28;20037;-74
2022/01/30 12:37:30;;;;;;;21.02;5.25;;;5.40;99.90;;;;;;5020432;28;20026;-74
2022/01/30 12:39:57;;;;;;;14.73;4.70;;;5.30;99.90;;;;;;5015400;28;20033;-74
2022/01/30 12:42:27;;;;;;;14.77;4.38;;;5.30;99.90;;;;;;5013490;28;20096;-74
2022/01/30 12:44:58;;;;;;;18.30;5.30;;;5.40;99.90;;;;;;5012963;28;20034;-75
2022/01/30 12:47:24;;;;;;;15.70;5.10;;;5.40;99.90;;;;;;5027318;28;20423;-75
2022/01/30 12:49:52;;;;;;;15.68;5.55;;;5.40;99.90;;;;;;5023870;28;20021;-75
2022/01/30 12:54:55;;;;;;;17.30;5.07;;;5.20;99.90;;;;;;5034022;28;20479;-75
2022/01/30 12:57:21;;;;;;;16.45;5.18;;;5.30;99.90;;;;;;5020440;28;20040;-75
2022/01/30 12:59:51;;;;;;;13.60;4.90;;;5.30;99.90;;;;;;5021916;28;20037;-75
2022/01/30 13:02:18;;;;;;;14.38;4.35;;;5.30;99.90;;;;;;5026680;28;20026;-74
2022/01/30 13:04:43;;;;;;;13.95;4.70;;;5.30;99.90;;;;;;5013416;28;20408;-73
2022/01/30 13:07:13;;;;;;;16.52;4.90;;;5.30;99.90;;;;;;5027016;28;20030;-74
2022/01/30 13:09:39;;;;;;;12.38;5.28;;;5.30;99.90;;;;;;5013751;28;20057;-74
2022/01/30 13:12:15;;;;;;;17.15;5.47;;;5.30;99.90;;;;;;5026632;28;20058;-74
2022/01/30 13:14:42;;;;;;;15.13;5.50;;;5.30;99.90;;;;;;5027500;28;20520;-73
2022/01/30 13:17:10;;;;;;;22.75;5.10;;;5.30;99.90;;;;;;5025544;28;20080;-73
2022/01/30 13:19:45;;;;;;;18.10;5.60;;;5.20;99.90;;;;;;5027988;28;20109;-73
2022/01/30 13:22:23;;;;;;;16.10;4.90;;;5.10;99.90;;;;;;5032959;28;20022;-74
2022/01/30 13:24:56;;;;;;;17.23;5.60;;;5.20;99.90;;;;;;5019771;28;20100;-74
2022/01/30 13:27:21;;;;;;;16.05;5.57;;;5.30;99.90;;;;;;5015175;28;20112;-75
2022/01/30 13:29:47;;;;;;;18.27;5.63;;;5.20;99.90;;;;;;5026969;28;20106;-74
2022/01/30 13:32:13;;;;;;;18.30;5.80;;;5.20;99.90;;;;;;5012971;28;20026;-74
2022/01/30 13:34:40;;;;;;;21.95;5.20;;;5.20;99.90;;;;;;5018625;28;20104;-74
2022/01/30 13:37:12;;;;;;;21.02;5.57;;;5.20;99.90;;;;;;5019427;28;20030;-77
2022/01/30 13:40:07;;;;;;;17.67;5.85;;;5.20;99.90;;;;;;5000380;28;20036;-75
2022/01/30 13:47:58;;;;;;;19.50;5.50;;;5.20;99.90;;;;;;5010006;28;20057;-75
2022/01/30 13:50:31;;;;;;;24.13;7.25;;;5.20;99.90;;;;;;5017315;28;20084;-74
2022/01/30 13:53:19;;;;;;;21.92;6.00;;;5.10;99.90;;;;;;5011906;28;20037;-73
2022/01/30 13:56:09;;;;;;;19.55;5.43;;;5.10;99.90;;;;;;5025369;28;20133;-75
2022/01/30 13:58:37;;;;;;;23.55;6.55;;;5.10;99.90;;;;;;5015263;28;20069;-74